createdAt,value
2018-03-03T00:00:15.982Z,1001.12
2018-03-03T00:01:25.934Z,1001.15
2018-03-03T00:02:35.622Z,1001.16
2018-03-03T00:03:45.577Z,1001.12
2018-03-03T00:04:55.272Z,1001.15
2018-03-03T00:06:04.973Z,1001.15
2018-03-03T00:07:14.403Z,1001.16
2018-03-03T00:08:24.368Z,1001.17
2018-03-03T00:09:33.804Z,1001.14
2018-03-03T00:10:43.779Z,1001.18
2018-03-03T00:11:53.472Z,1001.18
2018-03-03T00:13:03.428Z,1001.2
2018-03-03T00:14:12.603Z,1001.16
2018-03-03T00:15:22.557Z,1001.2
2018-03-03T00:16:32.241Z,1001.22
2018-03-03T00:17:42.294Z,1001.23
2018-03-03T00:18:52.243Z,1001.25
2018-03-03T00:20:02.186Z,1001.2
2018-03-03T00:21:12.142Z,1001.25
2018-03-03T00:22:22.102Z,1001.26
2018-03-03T00:23:31.805Z,1001.26
2018-03-03T00:24:41.252Z,1001.19
2018-03-03T00:25:51.211Z,1001.22
2018-03-03T00:27:01.161Z,1001.23
2018-03-03T00:28:10.606Z,1001.27
2018-03-03T00:29:20.302Z,1001.24
2018-03-03T00:30:29.989Z,1001.25
2018-03-03T00:31:39.420Z,1001.24
2018-03-03T00:32:49.114Z,1001.29
2018-03-03T00:33:58.813Z,1001.21
2018-03-03T00:35:08.503Z,1001.24
2018-03-03T00:36:18.475Z,1001.21
2018-03-03T00:37:28.180Z,1001.2
2018-03-03T00:38:37.626Z,1001.17
2018-03-03T00:39:47.329Z,1001.19
2018-03-03T00:40:56.770Z,1001.16
2018-03-03T00:42:06.014Z,1001.21
2018-03-03T00:43:15.441Z,1001.26
2018-03-03T00:44:24.877Z,1001.32
2018-03-03T00:45:34.574Z,1001.3
2018-03-03T00:46:44.263Z,1001.25
2018-03-03T00:47:54.225Z,1001.35
2018-03-03T00:49:03.663Z,1001.37
2018-03-03T00:50:13.631Z,1001.38
2018-03-03T00:51:23.072Z,1001.4
2018-03-03T00:52:33.031Z,1001.36
2018-03-03T00:53:42.987Z,1001.38
2018-03-03T00:54:52.676Z,1001.41
2018-03-03T00:56:02.378Z,1001.44
2018-03-03T00:57:11.813Z,1001.42
2018-03-03T00:58:21.503Z,1001.47
2018-03-03T00:59:31.457Z,1001.42
2018-03-03T01:00:41.162Z,1001.38
2018-03-03T01:01:50.862Z,1001.43
2018-03-03T01:03:00.814Z,1001.39
2018-03-03T01:04:10.508Z,1001.42
2018-03-03T01:05:20.465Z,1001.38
2018-03-03T01:06:30.417Z,1001.38
2018-03-03T01:07:40.360Z,1001.39
2018-03-03T01:08:50.314Z,1001.43
2018-03-03T01:10:00.015Z,1001.44
2018-03-03T01:11:09.706Z,1001.39
2018-03-03T01:12:19.414Z,1001.38
2018-03-03T01:13:29.108Z,1001.44
2018-03-03T01:14:38.806Z,1001.4
2018-03-03T01:15:48.755Z,1001.45
2018-03-03T01:16:58.441Z,1001.46
2018-03-03T01:18:08.208Z,1001.4
2018-03-03T01:19:18.164Z,1001.37
2018-03-03T01:20:27.864Z,1001.37
2018-03-03T01:21:37.829Z,1001.35
2018-03-03T01:22:47.766Z,1001.38
2018-03-03T01:23:57.466Z,1001.36
2018-03-03T01:25:06.900Z,1001.33
2018-03-03T01:26:16.854Z,1001.37
2018-03-03T01:27:26.575Z,1001.37
2018-03-03T01:28:36.733Z,1001.34
2018-03-03T01:29:46.685Z,1001.34
2018-03-03T01:30:56.690Z,1001.39
2018-03-03T01:32:06.383Z,1001.4
2018-03-03T01:33:16.347Z,1001.42
2018-03-03T01:34:25.773Z,1001.34
2018-03-03T01:35:34.950Z,1001.35
2018-03-03T01:36:44.905Z,1001.37
2018-03-03T01:37:55.073Z,1001.33
2018-03-03T01:39:05.015Z,1001.32
2018-03-03T01:40:14.447Z,1001.3
2018-03-03T01:41:23.880Z,1001.35
2018-03-03T01:42:33.853Z,1001.4
2018-03-03T01:43:43.565Z,1001.33
2018-03-03T01:44:53.526Z,1001.33
2018-03-03T01:46:03.218Z,1001.35
2018-03-03T01:47:12.915Z,1001.36
2018-03-03T01:48:22.600Z,1001.34
2018-03-03T01:49:32.545Z,1001.34
2018-03-03T01:50:41.969Z,1001.33
2018-03-03T01:51:51.414Z,1001.32
2018-03-03T01:53:01.094Z,1001.34
2018-03-03T01:54:11.033Z,1001.34
2018-03-03T01:55:20.722Z,1001.36
2018-03-03T01:56:30.412Z,1001.35
2018-03-03T01:57:40.117Z,1001.35
2018-03-03T01:58:49.801Z,1001.32
2018-03-03T01:59:59.756Z,1001.33
2018-03-03T02:01:09.445Z,1001.27
2018-03-03T02:02:19.144Z,1001.22
2018-03-03T02:03:28.835Z,1001.23
2018-03-03T02:04:38.511Z,1001.21
2018-03-03T02:05:48.196Z,1001.16
2018-03-03T02:06:57.891Z,1001.2
2018-03-03T02:08:07.584Z,1001.19
2018-03-03T02:09:17.284Z,1001.13
2018-03-03T02:10:27.228Z,1001.16
2018-03-03T02:11:36.883Z,1001.18
2018-03-03T02:12:46.581Z,1001.17
2018-03-03T02:13:56.260Z,1001.16
2018-03-03T02:15:05.944Z,1001.15
2018-03-03T02:16:15.626Z,1001.2
2018-03-03T02:17:25.055Z,1001.21
2018-03-03T02:18:34.484Z,1001.17
2018-03-03T02:19:44.187Z,1001.18
2018-03-03T02:20:53.866Z,1001.2
2018-03-03T02:22:02.784Z,1001.13
2018-03-03T02:23:12.744Z,1001.16
2018-03-03T02:24:22.447Z,1001.13
2018-03-03T02:25:32.414Z,1001.16
2018-03-03T02:26:42.102Z,1001.09
2018-03-03T02:27:52.054Z,1001.1
2018-03-03T02:29:01.747Z,1001.1
2018-03-03T02:30:11.440Z,1001.1
2018-03-03T02:31:21.393Z,1001.13
2018-03-03T02:32:31.354Z,1001.11
2018-03-03T02:33:41.047Z,1001.15
2018-03-03T02:34:50.481Z,1001.16
2018-03-03T02:36:00.432Z,1001.16
2018-03-03T02:37:10.395Z,1001.16
2018-03-03T02:38:20.087Z,1001.16
2018-03-03T02:39:29.799Z,1001.16
2018-03-03T02:40:39.746Z,1001.16
2018-03-03T02:41:49.690Z,1001.19
2018-03-03T02:42:59.372Z,1001.22
2018-03-03T02:44:08.814Z,1001.2
2018-03-03T02:45:18.760Z,1001.2
2018-03-03T02:46:28.710Z,1001.22
2018-03-03T02:47:38.670Z,1001.22
2018-03-03T02:48:48.363Z,1001.19
2018-03-03T02:49:57.795Z,1001.28
2018-03-03T02:51:07.228Z,1001.28
2018-03-03T02:52:17.215Z,1001.17
2018-03-03T02:53:26.912Z,1001.2
2018-03-03T02:54:36.883Z,1001.13
2018-03-03T02:55:46.574Z,1001.16
2018-03-03T02:56:56.266Z,1001.21
2018-03-03T02:58:05.985Z,1001.15
2018-03-03T02:59:15.705Z,1001.18
2018-03-03T03:00:25.670Z,1001.13
2018-03-03T03:01:35.361Z,1001.13
2018-03-03T03:02:45.335Z,1001.09
2018-03-03T03:03:55.307Z,1001.14
2018-03-03T03:05:05.277Z,1001.09
2018-03-03T03:06:14.984Z,1001.09
2018-03-03T03:07:24.696Z,1001.08
2018-03-03T03:08:34.640Z,1001.05
2018-03-03T03:09:44.320Z,1001.05
2018-03-03T03:10:53.743Z,1001.09
2018-03-03T03:12:03.434Z,1001.07
2018-03-03T03:13:13.379Z,1001.08
2018-03-03T03:14:23.072Z,1001.1
2018-03-03T03:15:33.014Z,1001.12
2018-03-03T03:16:42.182Z,1001.09
2018-03-03T03:17:52.115Z,1001.07
2018-03-03T03:19:01.540Z,1001.07
2018-03-03T03:20:11.487Z,1001.15
2018-03-03T03:21:21.435Z,1001.1
2018-03-03T03:22:31.118Z,1001.11
2018-03-03T03:23:40.802Z,1001.09
2018-03-03T03:24:50.779Z,1001.1
2018-03-03T03:26:00.209Z,1001.09
2018-03-03T03:27:09.634Z,1001.05
2018-03-03T03:28:19.325Z,1001.07
2018-03-03T03:29:29.275Z,1001.05
2018-03-03T03:30:38.445Z,1001.08
2018-03-03T03:31:48.165Z,1001.08
2018-03-03T03:32:57.845Z,1001.05
2018-03-03T03:34:07.279Z,1001.01
2018-03-03T03:35:16.976Z,1001.03
2018-03-03T03:36:26.917Z,1000.97
2018-03-03T03:37:36.606Z,1001.04
2018-03-03T03:38:46.290Z,1001.01
2018-03-03T03:39:56.265Z,1001
2018-03-03T03:41:06.212Z,1001.02
2018-03-03T03:42:15.638Z,1001.04
2018-03-03T03:43:25.588Z,1001.03
2018-03-03T03:44:35.533Z,1001.1
2018-03-03T03:45:45.474Z,1001.08
2018-03-03T03:46:54.889Z,1001.09
2018-03-03T03:48:04.848Z,1001.11
2018-03-03T03:49:14.529Z,1001.11
2018-03-03T03:50:24.217Z,1001.12
2018-03-03T03:51:33.905Z,1001.07
2018-03-03T03:52:43.861Z,1001.1
2018-03-03T03:53:53.569Z,1001.09
2018-03-03T03:55:03.512Z,1001.1
2018-03-03T03:56:13.202Z,1001.12
2018-03-03T03:57:22.898Z,1001.1
2018-03-03T03:58:32.585Z,1001.09
2018-03-03T03:59:42.534Z,1001.09
2018-03-03T04:00:52.219Z,1001.11
2018-03-03T04:02:02.194Z,1001.12
2018-03-03T04:03:12.135Z,1001.13
2018-03-03T04:04:22.081Z,1001.19
2018-03-03T04:05:31.772Z,1001.16
2018-03-03T04:06:41.211Z,1001.2
2018-03-03T04:07:51.166Z,1001.21
2018-03-03T04:09:01.125Z,1001.21
2018-03-03T04:10:10.859Z,1001.28
2018-03-03T04:11:20.545Z,1001.25
2018-03-03T04:12:30.490Z,1001.22
2018-03-03T04:13:40.439Z,1001.21
2018-03-03T04:14:50.402Z,1001.21
2018-03-03T04:15:59.826Z,1001.19
2018-03-03T04:17:09.508Z,1001.2
2018-03-03T04:18:19.444Z,1001.2
2018-03-03T04:19:28.879Z,1001.25
2018-03-03T04:20:38.833Z,1001.24
2018-03-03T04:21:48.519Z,1001.25
2018-03-03T04:22:58.210Z,1001.17
2018-03-03T04:24:07.639Z,1001.12
2018-03-03T04:25:17.324Z,1001.16
2018-03-03T04:26:27.009Z,1001.18
2018-03-03T04:27:36.699Z,1001.19
2018-03-03T04:28:46.649Z,1001.17
2018-03-03T04:29:56.611Z,1001.18
2018-03-03T04:31:05.776Z,1001.21
2018-03-03T04:32:15.474Z,1001.2
2018-03-03T04:33:24.899Z,1001.15
2018-03-03T04:34:34.582Z,1001.18
2018-03-03T04:35:44.532Z,1001.17
2018-03-03T04:36:53.963Z,1001.18
2018-03-03T04:38:03.398Z,1001.14
2018-03-03T04:39:13.082Z,1001.16
2018-03-03T04:40:22.247Z,1001.11
2018-03-03T04:41:32.199Z,1001.14
2018-03-03T04:42:42.144Z,1001.19
2018-03-03T04:43:52.095Z,1001.14
2018-03-03T04:45:02.035Z,1001.18
2018-03-03T04:46:11.718Z,1001.15
2018-03-03T04:47:21.149Z,1001.12
2018-03-03T04:48:31.092Z,1001.1
2018-03-03T04:49:40.788Z,1001.11
2018-03-03T04:50:50.215Z,1001.07
2018-03-03T04:52:00.156Z,1001.1
2018-03-03T04:53:10.118Z,1001.11
2018-03-03T04:54:19.813Z,1001.1
2018-03-03T04:55:29.759Z,1001.15
2018-03-03T04:56:39.704Z,1001.14
2018-03-03T04:57:49.655Z,1001.15
2018-03-03T04:58:59.084Z,1001.17
2018-03-03T05:00:08.779Z,1001.1
2018-03-03T05:01:18.468Z,1001.05
2018-03-03T05:02:28.405Z,1001.07
2018-03-03T05:03:38.358Z,1001.09
2018-03-03T05:04:47.779Z,1001.07
2018-03-03T05:05:57.470Z,1001.12
2018-03-03T05:07:07.418Z,1001.12
2018-03-03T05:08:17.363Z,1001.12
2018-03-03T05:09:26.536Z,1001.11
2018-03-03T05:10:36.219Z,1001.07
2018-03-03T05:11:45.650Z,1001.05
2018-03-03T05:12:55.340Z,1001.09
2018-03-03T05:14:05.027Z,1001.06
2018-03-03T05:15:14.756Z,1001.05
2018-03-03T05:16:24.451Z,1001.08
2018-03-03T05:17:34.144Z,1001.1
2018-03-03T05:18:43.629Z,1001.06
2018-03-03T05:19:53.316Z,1001.06
2018-03-03T05:21:02.488Z,1001.06
2018-03-03T05:22:12.173Z,1001.05
2018-03-03T05:23:22.195Z,1001.02
2018-03-03T05:24:31.893Z,1001.05
2018-03-03T05:25:41.322Z,1001.08
2018-03-03T05:26:50.755Z,1001.06
2018-03-03T05:28:00.709Z,1001.06
2018-03-03T05:29:10.143Z,1001.08
2018-03-03T05:30:20.107Z,1001.05
2018-03-03T05:31:29.546Z,1001.12
2018-03-03T05:32:38.979Z,1001.07
2018-03-03T05:33:48.164Z,1001.14
2018-03-03T05:34:57.335Z,1001.19
2018-03-03T05:36:07.282Z,1001.17
2018-03-03T05:37:16.712Z,1001.2
2018-03-03T05:38:26.390Z,1001.18
2018-03-03T05:39:36.087Z,1001.18
2018-03-03T05:40:45.767Z,1001.21
2018-03-03T05:41:55.704Z,1001.19
2018-03-03T05:43:05.130Z,1001.16
2018-03-03T05:44:14.552Z,1001.09
2018-03-03T05:45:24.499Z,1001.13
2018-03-03T05:46:33.671Z,1001.11
2018-03-03T05:47:43.622Z,1001.15
2018-03-03T05:48:53.318Z,1001.12
2018-03-03T05:50:03.325Z,1001.11
2018-03-03T05:51:13.013Z,1001.11
2018-03-03T05:52:22.441Z,1001.15
2018-03-03T05:53:32.127Z,1001.16
2018-03-03T05:54:42.067Z,1001.1
2018-03-03T05:55:51.487Z,1001.16
2018-03-03T05:57:00.926Z,1001.16
2018-03-03T05:58:10.619Z,1001.18
2018-03-03T05:59:20.305Z,1001.19
2018-03-03T06:00:29.732Z,1001.21
2018-03-03T06:01:39.201Z,1001.15
2018-03-03T06:02:49.149Z,1001.18
2018-03-03T06:03:59.107Z,1001.16
2018-03-03T06:05:08.842Z,1001.16
2018-03-03T06:06:18.786Z,1001.22
2018-03-03T06:07:28.724Z,1001.2
2018-03-03T06:08:38.672Z,1001.18
2018-03-03T06:09:48.625Z,1001.19
2018-03-03T06:10:58.570Z,1001.17
2018-03-03T06:12:08.255Z,1001.16
2018-03-03T06:13:17.682Z,1001.17
2018-03-03T06:14:27.628Z,1001.11
2018-03-03T06:15:37.565Z,1001.08
2018-03-03T06:16:47.509Z,1001.07
2018-03-03T06:17:57.449Z,1001.08
2018-03-03T06:19:07.133Z,1001.13
2018-03-03T06:20:16.829Z,1001.17
2018-03-03T06:21:26.520Z,1001.13
2018-03-03T06:22:36.205Z,1001.14
2018-03-03T06:23:45.929Z,1001.1
2018-03-03T06:24:55.354Z,1001.08
2018-03-03T06:26:05.301Z,1001.12
2018-03-03T06:27:15.035Z,1001.17
2018-03-03T06:28:25.000Z,1001.08
2018-03-03T06:29:34.938Z,1001.12
2018-03-03T06:30:44.883Z,1001.11
2018-03-03T06:31:54.841Z,1001.11
2018-03-03T06:33:04.275Z,1001.13
2018-03-03T06:34:14.247Z,1001.09
2018-03-03T06:35:24.202Z,1001.14
2018-03-03T06:36:34.145Z,1001.08
2018-03-03T06:37:44.095Z,1001.09
2018-03-03T06:38:53.527Z,1001.1
2018-03-03T06:40:03.467Z,1001.14
2018-03-03T06:41:13.418Z,1001.12
2018-03-03T06:42:22.852Z,1001.04
2018-03-03T06:43:32.563Z,1001.08
2018-03-03T06:44:42.501Z,1001.13
2018-03-03T06:45:52.450Z,1001.09
2018-03-03T06:47:02.399Z,1001.08
2018-03-03T06:48:12.084Z,1001.08
2018-03-03T06:49:22.021Z,1001.06
2018-03-03T06:50:31.725Z,1001.07
2018-03-03T06:51:41.423Z,1001.12
2018-03-03T06:52:51.113Z,1001.08
2018-03-03T06:54:01.052Z,1001.08
2018-03-03T06:55:10.759Z,1001.01
2018-03-03T06:56:20.707Z,1001.02
2018-03-03T06:57:30.656Z,1001.01
2018-03-03T06:58:40.613Z,1000.98
2018-03-03T06:59:50.566Z,1001.02
2018-03-03T07:01:00.516Z,1001.01
2018-03-03T07:02:10.212Z,1000.97
2018-03-03T07:03:19.904Z,1000.98
2018-03-03T07:04:29.592Z,1000.97
2018-03-03T07:05:39.564Z,1000.98
2018-03-03T07:06:49.510Z,1000.99
2018-03-03T07:07:59.199Z,1001.03
2018-03-03T07:09:08.886Z,1001.01
2018-03-03T07:10:18.831Z,1001.08
2018-03-03T07:11:28.774Z,1001.03
2018-03-03T07:12:38.461Z,1001.05
2018-03-03T07:13:48.412Z,1001.06
2018-03-03T07:14:58.365Z,1001.07
2018-03-03T07:16:08.116Z,1001.04
2018-03-03T07:17:17.840Z,1001.02
2018-03-03T07:18:27.498Z,1001.04
2018-03-03T07:19:37.452Z,1000.98
2018-03-03T07:20:47.408Z,1001.02
2018-03-03T07:21:57.352Z,1001.05
2018-03-03T07:23:07.312Z,1001.05
2018-03-03T07:24:17.271Z,1001.06
2018-03-03T07:25:26.970Z,1001.04
2018-03-03T07:26:36.937Z,1001.06
2018-03-03T07:27:46.893Z,1001.04
2018-03-03T07:28:56.570Z,1001.06
2018-03-03T07:30:06.151Z,1001.07
2018-03-03T07:31:15.586Z,1001.08
2018-03-03T07:32:25.281Z,1001.09
2018-03-03T07:33:34.481Z,1001.1
2018-03-03T07:34:43.917Z,1001.12
2018-03-03T07:35:53.345Z,1001.06
2018-03-03T07:37:03.052Z,1001.06
2018-03-03T07:38:13.054Z,1001.08
2018-03-03T07:39:23.000Z,1001.02
2018-03-03T07:40:32.440Z,1001.08
2018-03-03T07:41:42.128Z,1001.04
2018-03-03T07:42:52.080Z,1001.05
2018-03-03T07:44:01.523Z,1001.02
2018-03-03T07:45:11.476Z,1000.98
2018-03-03T07:46:20.913Z,1001.03
2018-03-03T07:47:30.867Z,1001.06
2018-03-03T07:48:40.823Z,1001
2018-03-03T07:49:50.770Z,1001.01
2018-03-03T07:51:00.739Z,1000.99
2018-03-03T07:52:10.432Z,1001.01
2018-03-03T07:53:20.393Z,1000.98
2018-03-03T07:54:30.131Z,1001
2018-03-03T07:55:39.563Z,1000.98
2018-03-03T07:56:49.525Z,1000.98
2018-03-03T07:57:59.498Z,1001.02
2018-03-03T07:59:09.188Z,1001.01
2018-03-03T08:00:19.158Z,1001.02
2018-03-03T08:01:28.851Z,1001
2018-03-03T08:02:38.602Z,1000.99
2018-03-03T08:03:48.302Z,1000.96
2018-03-03T08:04:57.995Z,1001.04
2018-03-03T08:06:07.461Z,1000.96
2018-03-03T08:07:16.901Z,1000.95
2018-03-03T08:08:26.846Z,1000.95
2018-03-03T08:09:36.809Z,1000.92
2018-03-03T08:10:46.519Z,1000.9
2018-03-03T08:11:56.211Z,1000.92
2018-03-03T08:13:06.166Z,1000.96
2018-03-03T08:14:16.123Z,1000.9
2018-03-03T08:15:25.819Z,1000.98
2018-03-03T08:16:35.508Z,1000.98
2018-03-03T08:17:44.947Z,1000.96
2018-03-03T08:18:54.908Z,1000.99
2018-03-03T08:20:04.597Z,1000.97
2018-03-03T08:21:14.548Z,1000.97
2018-03-03T08:22:23.999Z,1000.95
2018-03-03T08:23:33.974Z,1000.94
2018-03-03T08:24:43.416Z,1000.99
2018-03-03T08:25:52.859Z,1000.96
2018-03-03T08:27:02.326Z,1000.98
2018-03-03T08:28:12.303Z,1001.02
2018-03-03T08:29:22.004Z,1001
2018-03-03T08:30:31.744Z,1000.91
2018-03-03T08:31:40.933Z,1000.91
2018-03-03T08:32:50.898Z,1000.93
2018-03-03T08:34:00.899Z,1000.97
2018-03-03T08:35:10.612Z,1000.9
2018-03-03T08:36:20.300Z,1000.89
2018-03-03T08:37:30.001Z,1000.95
2018-03-03T08:38:39.722Z,1000.93
2018-03-03T08:39:49.414Z,1000.97
2018-03-03T08:40:58.849Z,1000.93
2018-03-03T08:42:08.801Z,1000.98
2018-03-03T08:43:18.502Z,1000.98
2018-03-03T08:44:28.202Z,1000.99
2018-03-03T08:45:38.172Z,1001.01
2018-03-03T08:46:47.912Z,1001.01
2018-03-03T08:47:57.618Z,1000.99
2018-03-03T08:49:07.585Z,1001.01
2018-03-03T08:50:17.564Z,1000.97
2018-03-03T08:51:27.007Z,1000.9
2018-03-03T08:52:36.798Z,1001.04
2018-03-03T08:53:46.524Z,1001
2018-03-03T08:54:56.230Z,1000.98
2018-03-03T08:56:05.669Z,1001
2018-03-03T08:57:15.678Z,1000.98
2018-03-03T08:58:25.667Z,1000.93
2018-03-03T08:59:35.368Z,1000.92
2018-03-03T09:00:45.319Z,1001.02
2018-03-03T09:01:55.059Z,1000.99
2018-03-03T09:03:04.761Z,1001.07
2018-03-03T09:04:14.719Z,1001.01
2018-03-03T09:05:24.689Z,1001.08
2018-03-03T09:06:34.690Z,1001.03
2018-03-03T09:07:44.382Z,1001.09
2018-03-03T09:08:53.563Z,1001.04
2018-03-03T09:10:03.537Z,1001.08
2018-03-03T09:11:13.590Z,1001.1
2018-03-03T09:12:23.027Z,1001.05
2018-03-03T09:13:33.044Z,1001.04
2018-03-03T09:14:43.045Z,1001.06
2018-03-03T09:15:53.016Z,1001.08
2018-03-03T09:17:02.728Z,1001.02
2018-03-03T09:18:12.701Z,1001.02
2018-03-03T09:19:22.401Z,1001.02
2018-03-03T09:20:31.909Z,1001.01
2018-03-03T09:21:41.687Z,1000.99
2018-03-03T09:22:51.638Z,1000.99
2018-03-03T09:24:01.357Z,1000.96
2018-03-03T09:25:11.326Z,1000.97
2018-03-03T09:26:21.117Z,1001.02
2018-03-03T09:27:30.562Z,1001
2018-03-03T09:28:40.532Z,1000.97
2018-03-03T09:29:49.983Z,1001.02
2018-03-03T09:30:59.425Z,1001.03
2018-03-03T09:32:09.150Z,1001.07
2018-03-03T09:33:19.119Z,1001.03
2018-03-03T09:34:29.084Z,1001.04
2018-03-03T09:35:38.559Z,1001.03
2018-03-03T09:36:48.266Z,1001.05
2018-03-03T09:37:57.963Z,1001.05
2018-03-03T09:39:07.439Z,1001.05
2018-03-03T09:40:17.434Z,1001.09
2018-03-03T09:41:27.144Z,1001.04
2018-03-03T09:42:36.065Z,1000.98
2018-03-03T09:43:45.575Z,1000.99
2018-03-03T09:44:54.968Z,1000.99
2018-03-03T09:46:04.722Z,1001
2018-03-03T09:47:14.441Z,1000.95
2018-03-03T09:48:23.878Z,1000.97
2018-03-03T09:49:33.332Z,1000.98
2018-03-03T09:50:43.311Z,1000.99
2018-03-03T09:51:53.023Z,1000.99
2018-03-03T09:53:02.820Z,1000.98
2018-03-03T09:54:12.540Z,1000.88
2018-03-03T09:55:22.525Z,1000.93
2018-03-03T09:56:32.507Z,1000.96
2018-03-03T09:57:41.963Z,1001
2018-03-03T09:58:51.944Z,1001
2018-03-03T10:00:01.713Z,1000.98
2018-03-03T10:01:11.162Z,1001
2018-03-03T10:02:20.853Z,1001
2018-03-03T10:03:30.560Z,1000.95
2018-03-03T10:04:40.259Z,1000.97
2018-03-03T10:05:49.986Z,1000.91
2018-03-03T10:06:59.973Z,1000.9
2018-03-03T10:08:09.960Z,1000.86
2018-03-03T10:09:19.703Z,1000.84
2018-03-03T10:10:29.858Z,1000.89
2018-03-03T10:11:39.305Z,1000.84
2018-03-03T10:12:49.029Z,1000.85
2018-03-03T10:13:58.996Z,1000.86
2018-03-03T10:15:08.694Z,1000.84
2018-03-03T10:16:18.419Z,1000.83
2018-03-03T10:17:27.917Z,1000.82
2018-03-03T10:18:37.621Z,1000.89
2018-03-03T10:19:47.596Z,1000.88
2018-03-03T10:20:57.287Z,1000.88
2018-03-03T10:22:07.277Z,1000.84
2018-03-03T10:23:17.274Z,1000.84
2018-03-03T10:24:26.988Z,1000.87
2018-03-03T10:25:36.958Z,1000.86
2018-03-03T10:26:46.680Z,1000.83
2018-03-03T10:27:56.646Z,1000.85
2018-03-03T10:29:06.621Z,1000.86
2018-03-03T10:30:16.327Z,1000.84
2018-03-03T10:31:26.041Z,1000.89
2018-03-03T10:32:35.501Z,1000.88
2018-03-03T10:33:45.196Z,1000.82
2018-03-03T10:34:55.160Z,1000.86
2018-03-03T10:36:04.609Z,1000.8
2018-03-03T10:37:14.584Z,1000.83
2018-03-03T10:38:24.287Z,1000.75
2018-03-03T10:39:33.741Z,1000.76
2018-03-03T10:40:43.443Z,1000.78
2018-03-03T10:41:53.432Z,1000.74
2018-03-03T10:43:03.399Z,1000.78
2018-03-03T10:44:13.111Z,1000.8
2018-03-03T10:45:23.071Z,1000.76
2018-03-03T10:46:33.115Z,1000.72
2018-03-03T10:47:42.566Z,1000.76
2018-03-03T10:48:52.014Z,1000.72
2018-03-03T10:50:01.206Z,1000.77
2018-03-03T10:51:11.170Z,1000.75
2018-03-03T10:52:21.144Z,1000.81
2018-03-03T10:53:31.123Z,1000.84
2018-03-03T10:54:41.107Z,1000.77
2018-03-03T10:55:51.111Z,1000.76
2018-03-03T10:57:00.557Z,1000.84
2018-03-03T10:58:10.013Z,1000.82
2018-03-03T10:59:19.989Z,1000.78
2018-03-03T11:00:29.452Z,1000.77
2018-03-03T11:01:39.429Z,1000.68
2018-03-03T11:02:49.130Z,1000.67
2018-03-03T11:03:58.578Z,1000.64
2018-03-03T11:05:08.375Z,1000.68
2018-03-03T11:06:18.090Z,1000.64
2018-03-03T11:07:27.797Z,1000.6
2018-03-03T11:08:37.744Z,1000.62
2018-03-03T11:09:47.721Z,1000.54
2018-03-03T11:10:57.686Z,1000.52
2018-03-03T11:12:07.420Z,1000.5
2018-03-03T11:13:16.887Z,1000.5
2018-03-03T11:14:26.861Z,1000.44
2018-03-03T11:15:36.841Z,1000.51
2018-03-03T11:16:46.851Z,1000.49
2018-03-03T11:17:56.829Z,1000.47
2018-03-03T11:19:06.287Z,1000.45
2018-03-03T11:20:16.278Z,1000.41
2018-03-03T11:21:26.021Z,1000.44
2018-03-03T11:22:35.737Z,1000.45
2018-03-03T11:23:45.206Z,1000.42
2018-03-03T11:24:55.175Z,1000.36
2018-03-03T11:26:04.633Z,1000.38
2018-03-03T11:27:14.595Z,1000.39
2018-03-03T11:28:24.580Z,1000.37
2018-03-03T11:29:34.567Z,1000.4
2018-03-03T11:30:44.288Z,1000.28
2018-03-03T11:31:54.002Z,1000.42
2018-03-03T11:33:03.970Z,1000.35
2018-03-03T11:34:13.688Z,1000.43
2018-03-03T11:35:23.413Z,1000.48
2018-03-03T11:36:33.399Z,1000.49
2018-03-03T11:37:43.149Z,1000.51
2018-03-03T11:38:53.178Z,1000.56
2018-03-03T11:40:03.121Z,1000.53
2018-03-03T11:41:12.591Z,1000.53
2018-03-03T11:42:22.565Z,1000.49
2018-03-03T11:43:32.013Z,1000.44
2018-03-03T11:44:41.983Z,1000.49
2018-03-03T11:45:51.953Z,1000.51
2018-03-03T11:47:01.928Z,1000.5
2018-03-03T11:48:11.895Z,1000.46
2018-03-03T11:49:21.605Z,1000.54
2018-03-03T11:50:31.578Z,1000.51
2018-03-03T11:51:41.290Z,1000.51
2018-03-03T11:52:51.266Z,1000.5
2018-03-03T11:54:01.034Z,1000.44
2018-03-03T11:55:11.003Z,1000.49
2018-03-03T11:56:20.975Z,1000.48
2018-03-03T11:57:30.971Z,1000.48
2018-03-03T11:58:40.959Z,1000.46
2018-03-03T11:59:50.927Z,1000.43
2018-03-03T12:01:00.905Z,1000.5
2018-03-03T12:02:10.619Z,1000.47
2018-03-03T12:03:20.596Z,1000.41
2018-03-03T12:04:30.560Z,1000.44
2018-03-03T12:05:40.523Z,1000.48
2018-03-03T12:06:50.221Z,1000.39
2018-03-03T12:08:00.186Z,1000.36
2018-03-03T12:09:09.649Z,1000.44
2018-03-03T12:10:19.697Z,1000.45
2018-03-03T12:11:29.166Z,1000.39
2018-03-03T12:12:38.903Z,1000.46
2018-03-03T12:13:48.629Z,1000.47
2018-03-03T12:14:58.084Z,1000.45
2018-03-03T12:16:07.806Z,1000.49
2018-03-03T12:17:17.263Z,1000.53
2018-03-03T12:18:26.974Z,1000.48
2018-03-03T12:19:36.942Z,1000.54
2018-03-03T12:20:46.660Z,1000.54
2018-03-03T12:21:56.368Z,1000.49
2018-03-03T12:23:06.353Z,1000.47
2018-03-03T12:24:16.310Z,1000.49
2018-03-03T12:25:26.015Z,1000.49
2018-03-03T12:26:35.985Z,1000.54
2018-03-03T12:27:45.438Z,1000.45
2018-03-03T12:28:55.214Z,1000.46
2018-03-03T12:30:04.680Z,1000.53
2018-03-03T12:31:14.389Z,1000.57
2018-03-03T12:32:24.363Z,1000.53
2018-03-03T12:33:34.341Z,1000.56
2018-03-03T12:34:43.827Z,1000.52
2018-03-03T12:35:53.295Z,1000.55
2018-03-03T12:37:03.272Z,1000.52
2018-03-03T12:38:13.262Z,1000.49
2018-03-03T12:39:22.724Z,1000.46
2018-03-03T12:40:32.174Z,1000.5
2018-03-03T12:41:42.134Z,1000.5
2018-03-03T12:42:51.597Z,1000.51
2018-03-03T12:44:01.051Z,1000.43
2018-03-03T12:45:11.019Z,1000.39
2018-03-03T12:46:20.756Z,1000.29
2018-03-03T12:47:30.224Z,1000.38
2018-03-03T12:48:39.957Z,1000.36
2018-03-03T12:49:49.674Z,1000.46
2018-03-03T12:50:59.402Z,1000.45
2018-03-03T12:52:08.857Z,1000.43
2018-03-03T12:53:18.584Z,1000.38
2018-03-03T12:54:28.537Z,1000.41
2018-03-03T12:55:38.512Z,1000.47
2018-03-03T12:56:48.210Z,1000.45
2018-03-03T12:57:58.194Z,1000.42
2018-03-03T12:59:07.940Z,1000.43
2018-03-03T13:00:17.915Z,1000.44
2018-03-03T13:01:27.116Z,1000.4
2018-03-03T13:02:36.597Z,1000.36
2018-03-03T13:03:46.595Z,1000.43
2018-03-03T13:04:56.317Z,1000.39
2018-03-03T13:06:06.290Z,1000.33
2018-03-03T13:07:16.014Z,1000.33
2018-03-03T13:08:25.521Z,1000.28
2018-03-03T13:09:35.485Z,1000.33
2018-03-03T13:10:44.948Z,1000.31
2018-03-03T13:11:54.400Z,1000.29
2018-03-03T13:13:04.381Z,1000.24
2018-03-03T13:14:14.090Z,1000.3
2018-03-03T13:15:23.798Z,1000.35
2018-03-03T13:16:33.510Z,1000.35
2018-03-03T13:17:43.222Z,1000.36
2018-03-03T13:18:52.690Z,1000.35
2018-03-03T13:20:02.684Z,1000.38
2018-03-03T13:21:12.146Z,1000.28
2018-03-03T13:22:22.121Z,1000.3
2018-03-03T13:23:32.119Z,1000.27
2018-03-03T13:24:42.097Z,1000.3
2018-03-03T13:25:51.297Z,1000.26
2018-03-03T13:27:00.746Z,1000.26
2018-03-03T13:28:10.463Z,1000.24
2018-03-03T13:29:20.169Z,1000.22
2018-03-03T13:30:30.180Z,1000.14
2018-03-03T13:31:40.162Z,1000.11
2018-03-03T13:32:49.876Z,1000.16
2018-03-03T13:33:59.862Z,1000.12
2018-03-03T13:35:09.822Z,1000.16
2018-03-03T13:36:19.796Z,1000.16
2018-03-03T13:37:29.508Z,1000.15
2018-03-03T13:38:39.481Z,1000.15
2018-03-03T13:39:49.456Z,1000.21
2018-03-03T13:40:59.479Z,1000.23
2018-03-03T13:42:09.360Z,1000.18
2018-03-03T13:43:19.341Z,1000.15
2018-03-03T13:44:29.316Z,1000.21
2018-03-03T13:45:39.311Z,1000.16
2018-03-03T13:46:48.767Z,1000.18
2018-03-03T13:47:58.735Z,1000.13
2018-03-03T13:49:08.752Z,1000.14
2018-03-03T13:50:18.472Z,1000.13
2018-03-03T13:51:28.439Z,1000.11
2018-03-03T13:52:38.429Z,1000.15
2018-03-03T13:53:48.153Z,1000.17
2018-03-03T13:54:57.896Z,1000.16
2018-03-03T13:56:07.618Z,1000.18
2018-03-03T13:57:17.586Z,1000.16
2018-03-03T13:58:27.315Z,1000.07
2018-03-03T13:59:36.766Z,1000.07
2018-03-03T14:00:45.969Z,1000.06
2018-03-03T14:01:55.961Z,1000.08
2018-03-03T14:03:05.938Z,1000.03
2018-03-03T14:04:15.660Z,1000.09
2018-03-03T14:05:24.872Z,1000.03
2018-03-03T14:06:34.581Z,1000.04